sensor_id;sensor_type;location;lat;lon;timestamp;temperature;humidity
29551;DHT22;16488;52.396;10.696;2023-01-16T00:01:51;5.20;99.90
29551;DHT22;16488;52.396;10.696;2023-01-16T00:04:17;5.30;99.90
29551;DHT22;16488;52.396;10.696;2023-01-16T00:06:42;5.30;99.90
29551;DHT22;16488;52.396;10.696;2023-01-16T00:09:08;5.30;99.90
29551;DHT22;16488;52.396;10.696;2023-01-16T00:11:34;5.30;99.90
29551;DHT22;16488;52.396;10.696;2023-01-16T00:13:59;5.30;99.90
29551;DHT22;16488;52.396;10.696;2023-01-16T00:16:26;5.30;99.90
29551;DHT22;16488;52.396;10.696;2023-01-16T00:18:53;5.30;99.90
29551;DHT22;16488;52.396;10.696;2023-01-16T00:21:19;5.30;99.90
29551;DHT22;16488;52.396;10.696;2023-01-16T00:23:45;5.30;99.90
29551;DHT22;16488;52.396;10.696;2023-01-16T00:26:11;5.30;99.90
29551;DHT22;16488;52.396;10.696;2023-01-16T00:28:38;5.30;99.90
29551;DHT22;16488;52.396;10.696;2023-01-16T00:31:07;5.30;99.90
29551;DHT22;16488;52.396;10.696;2023-01-16T00:33:33;5.30;99.90
29551;DHT22;16488;52.396;10.696;2023-01-16T00:36:00;5.40;99.90
29551;DHT22;16488;52.396;10.696;2023-01-16T00:38:25;5.40;99.90
29551;DHT22;16488;52.396;10.696;2023-01-16T00:40:51;5.40;99.90
29551;DHT22;16488;52.396;10.696;2023-01-16T00:43:17;5.40;99.90
29551;DHT22;16488;52.396;10.696;2023-01-16T00:45:42;5.40;99.90
29551;DHT22;16488;52.396;10.696;2023-01-16T00:48:08;5.40;99.90
29551;DHT22;16488;52.396;10.696;2023-01-16T00:50:34;5.40;99.90
29551;DHT22;16488;52.396;10.696;2023-01-16T00:53:00;5.30;99.90
29551;DHT22;16488;52.396;10.696;2023-01-16T00:55:25;5.40;99.90
29551;DHT22;16488;52.396;10.696;2023-01-16T00:57:51;5.40;99.90
29551;DHT22;16488;52.396;10.696;2023-01-16T01:00:17;5.30;99.90
29551;DHT22;16488;52.396;10.696;2023-01-16T01:02:49;5.30;99.90
29551;DHT22;16488;52.396;10.696;2023-01-16T01:05:15;5.30;99.90
29551;DHT22;16488;52.396;10.696;2023-01-16T01:07:41;5.40;99.90
29551;DHT22;16488;52.396;10.696;2023-01-16T01:10:06;5.30;99.90
29551;DHT22;16488;52.396;10.696;2023-01-16T01:12:32;5.30;99.90
29551;DHT22;16488;52.396;10.696;2023-01-16T01:14:58;5.30;99.90
29551;DHT22;16488;52.396;10.696;2023-01-16T01:17:23;5.30;99.90
29551;DHT22;16488;52.396;10.696;2023-01-16T01:19:49;5.20;99.90
29551;DHT22;16488;52.396;10.696;2023-01-16T01:22:15;5.20;99.90
29551;DHT22;16488;52.396;10.696;2023-01-16T01:24:47;5.20;99.90
29551;DHT22;16488;52.396;10.696;2023-01-16T01:27:14;5.20;99.90
29551;DHT22;16488;52.396;10.696;2023-01-16T01:29:39;5.20;99.90
29551;DHT22;16488;52.396;10.696;2023-01-16T01:32:05;5.20;99.90
29551;DHT22;16488;52.396;10.696;2023-01-16T01:34:32;5.20;99.90
29551;DHT22;16488;52.396;10.696;2023-01-16T01:37:03;5.20;99.90
29551;DHT22;16488;52.396;10.696;2023-01-16T01:39:29;5.20;99.90
29551;DHT22;16488;52.396;10.696;2023-01-16T01:41:55;5.20;99.90
29551;DHT22;16488;52.396;10.696;2023-01-16T01:44:54;5.10;99.90
29551;DHT22;16488;52.396;10.696;2023-01-16T01:47:25;5.10;99.90
29551;DHT22;16488;52.396;10.696;2023-01-16T01:49:52;5.10;99.90
29551;DHT22;16488;52.396;10.696;2023-01-16T01:52:20;5.10;99.90
29551;DHT22;16488;52.396;10.696;2023-01-16T01:54:52;5.00;99.90
29551;DHT22;16488;52.396;10.696;2023-01-16T01:57:30;5.00;99.90
29551;DHT22;16488;52.396;10.696;2023-01-16T02:00:09;5.10;99.90
29551;DHT22;16488;52.396;10.696;2023-01-16T02:02:39;5.00;99.90
29551;DHT22;16488;52.396;10.696;2023-01-16T02:05:08;5.00;99.90
29551;DHT22;16488;52.396;10.696;2023-01-16T02:07:35;5.00;99.90
29551;DHT22;16488;52.396;10.696;2023-01-16T02:12:48;5.00;99.90
29551;DHT22;16488;52.396;10.696;2023-01-16T02:15:13;5.00;99.90
29551;DHT22;16488;52.396;10.696;2023-01-16T02:17:46;5.10;99.90
29551;DHT22;16488;52.396;10.696;2023-01-16T02:20:34;5.10;99.90
29551;DHT22;16488;52.396;10.696;2023-01-16T02:29:21;5.30;99.90
29551;DHT22;16488;52.396;10.696;2023-01-16T02:37:56;5.30;99.90
29551;DHT22;16488;52.396;10.696;2023-01-16T02:40:52;5.20;99.90
29551;DHT22;16488;52.396;10.696;2023-01-16T02:48:40;5.30;99.90
29551;DHT22;16488;52.396;10.696;2023-01-16T02:56:12;5.30;99.90
29551;DHT22;16488;52.396;10.696;2023-01-16T02:58:43;5.30;99.90
29551;DHT22;16488;52.396;10.696;2023-01-16T03:01:09;5.30;99.90
29551;DHT22;16488;52.396;10.696;2023-01-16T03:04:05;5.30;99.90
29551;DHT22;16488;52.396;10.696;2023-01-16T03:06:45;5.30;99.90
29551;DHT22;16488;52.396;10.696;2023-01-16T03:09:39;5.40;99.90
29551;DHT22;16488;52.396;10.696;2023-01-16T03:14:56;5.30;99.90
29551;DHT22;16488;52.396;10.696;2023-01-16T03:20:47;5.40;99.90
29551;DHT22;16488;52.396;10.696;2023-01-16T03:23:24;5.40;99.90
29551;DHT22;16488;52.396;10.696;2023-01-16T03:29:06;5.30;99.90
29551;DHT22;16488;52.396;10.696;2023-01-16T03:31:36;5.20;99.90
29551;DHT22;16488;52.396;10.696;2023-01-16T03:34:22;5.20;99.90
29551;DHT22;16488;52.396;10.696;2023-01-16T03:36:55;5.10;99.90
29551;DHT22;16488;52.396;10.696;2023-01-16T03:39:25;5.10;99.90
29551;DHT22;16488;52.396;10.696;2023-01-16T03:41:55;5.10;99.90
29551;DHT22;16488;52.396;10.696;2023-01-16T03:44:32;5.10;99.90
29551;DHT22;16488;52.396;10.696;2023-01-16T03:47:00;5.10;99.90
29551;DHT22;16488;52.396;10.696;2023-01-16T03:49:40;5.00;99.90
29551;DHT22;16488;52.396;10.696;2023-01-16T03:52:10;5.00;99.90
29551;DHT22;16488;52.396;10.696;2023-01-16T03:59:44;4.90;99.90
29551;DHT22;16488;52.396;10.696;2023-01-16T04:05:16;4.90;99.90
29551;DHT22;16488;52.396;10.696;2023-01-16T04:08:09;5.00;99.90
29551;DHT22;16488;52.396;10.696;2023-01-16T04:10:38;5.00;99.90
29551;DHT22;16488;52.396;10.696;2023-01-16T04:13:07;5.00;99.90
29551;DHT22;16488;52.396;10.696;2023-01-16T04:15:37;5.00;99.90
29551;DHT22;16488;52.396;10.696;2023-01-16T04:18:04;5.00;99.90
29551;DHT22;16488;52.396;10.696;2023-01-16T04:20:31;4.90;99.90
29551;DHT22;16488;52.396;10.696;2023-01-16T04:22:57;4.90;99.90
29551;DHT22;16488;52.396;10.696;2023-01-16T04:25:22;4.90;99.90
29551;DHT22;16488;52.396;10.696;2023-01-16T04:27:48;4.90;99.90
29551;DHT22;16488;52.396;10.696;2023-01-16T04:30:14;4.80;99.90
29551;DHT22;16488;52.396;10.696;2023-01-16T04:32:41;4.80;99.90
29551;DHT22;16488;52.396;10.696;2023-01-16T04:35:07;4.80;99.90
29551;DHT22;16488;52.396;10.696;2023-01-16T04:37:32;4.80;99.90
29551;DHT22;16488;52.396;10.696;2023-01-16T04:39:58;4.80;99.90
29551;DHT22;16488;52.396;10.696;2023-01-16T04:42:25;4.70;99.90
29551;DHT22;16488;52.396;10.696;2023-01-16T04:44:50;4.70;99.90
29551;DHT22;16488;52.396;10.696;2023-01-16T04:47:16;4.80;99.90
29551;DHT22;16488;52.396;10.696;2023-01-16T04:49:42;4.70;99.90
29551;DHT22;16488;52.396;10.696;2023-01-16T04:52:08;4.70;99.90
29551;DHT22;16488;52.396;10.696;2023-01-16T04:54:33;4.70;99.90
29551;DHT22;16488;52.396;10.696;2023-01-16T04:56:59;4.70;99.90
29551;DHT22;16488;52.396;10.696;2023-01-16T04:59:26;4.70;99.90
29551;DHT22;16488;52.396;10.696;2023-01-16T05:01:52;4.60;99.90
29551;DHT22;16488;52.396;10.696;2023-01-16T05:04:18;4.60;99.90
29551;DHT22;16488;52.396;10.696;2023-01-16T05:06:45;4.60;99.90
29551;DHT22;16488;52.396;10.696;2023-01-16T05:09:10;4.60;99.90
29551;DHT22;16488;52.396;10.696;2023-01-16T05:11:36;4.60;99.90
29551;DHT22;16488;52.396;10.696;2023-01-16T05:14:02;4.50;99.90
29551;DHT22;16488;52.396;10.696;2023-01-16T05:16:30;4.50;99.90
29551;DHT22;16488;52.396;10.696;2023-01-16T05:18:56;4.50;99.90
29551;DHT22;16488;52.396;10.696;2023-01-16T05:21:22;4.50;99.90
29551;DHT22;16488;52.396;10.696;2023-01-16T05:23:48;4.50;99.90
29551;DHT22;16488;52.396;10.696;2023-01-16T05:26:14;4.50;99.90
29551;DHT22;16488;52.396;10.696;2023-01-16T05:28:39;4.50;99.90
29551;DHT22;16488;52.396;10.696;2023-01-16T05:31:05;4.50;99.90
29551;DHT22;16488;52.396;10.696;2023-01-16T05:33:31;4.50;99.90
29551;DHT22;16488;52.396;10.696;2023-01-16T05:35:56;4.50;99.90
29551;DHT22;16488;52.396;10.696;2023-01-16T05:38:22;4.50;99.90
29551;DHT22;16488;52.396;10.696;2023-01-16T05:40:48;4.50;99.90
29551;DHT22;16488;52.396;10.696;2023-01-16T05:43:14;4.50;99.90
29551;DHT22;16488;52.396;10.696;2023-01-16T05:45:40;4.50;99.90
29551;DHT22;16488;52.396;10.696;2023-01-16T05:48:06;4.40;99.90
29551;DHT22;16488;52.396;10.696;2023-01-16T05:50:31;4.40;99.90
29551;DHT22;16488;52.396;10.696;2023-01-16T05:52:57;4.30;99.90
29551;DHT22;16488;52.396;10.696;2023-01-16T05:55:23;4.30;99.90
29551;DHT22;16488;52.396;10.696;2023-01-16T05:57:49;4.30;99.90
29551;DHT22;16488;52.396;10.696;2023-01-16T06:00:15;4.30;99.90
29551;DHT22;16488;52.396;10.696;2023-01-16T06:02:41;4.30;99.90
29551;DHT22;16488;52.396;10.696;2023-01-16T06:05:07;4.30;99.90
29551;DHT22;16488;52.396;10.696;2023-01-16T06:07:33;4.30;99.90
29551;DHT22;16488;52.396;10.696;2023-01-16T06:09:59;4.20;99.90
29551;DHT22;16488;52.396;10.696;2023-01-16T06:12:24;4.20;99.90
29551;DHT22;16488;52.396;10.696;2023-01-16T06:14:50;4.20;99.90
29551;DHT22;16488;52.396;10.696;2023-01-16T06:17:16;4.10;99.90
29551;DHT22;16488;52.396;10.696;2023-01-16T06:19:43;4.10;99.90
29551;DHT22;16488;52.396;10.696;2023-01-16T06:22:12;4.10;99.90
29551;DHT22;16488;52.396;10.696;2023-01-16T06:24:39;4.10;99.90
29551;DHT22;16488;52.396;10.696;2023-01-16T06:27:04;4.10;99.90
29551;DHT22;16488;52.396;10.696;2023-01-16T06:29:30;4.10;99.90
29551;DHT22;16488;52.396;10.696;2023-01-16T06:31:56;4.10;99.90
29551;DHT22;16488;52.396;10.696;2023-01-16T06:34:21;4.20;99.90
29551;DHT22;16488;52.396;10.696;2023-01-16T06:36:47;4.20;99.90
29551;DHT22;16488;52.396;10.696;2023-01-16T06:39:14;4.30;99.90
29551;DHT22;16488;52.396;10.696;2023-01-16T06:41:40;4.30;99.90
29551;DHT22;16488;52.396;10.696;2023-01-16T06:44:06;4.30;99.90
29551;DHT22;16488;52.396;10.696;2023-01-16T06:46:31;4.40;99.90
29551;DHT22;16488;52.396;10.696;2023-01-16T06:48:57;4.40;99.90
29551;DHT22;16488;52.396;10.696;2023-01-16T06:51:23;4.40;99.90
29551;DHT22;16488;52.396;10.696;2023-01-16T06:53:48;4.50;99.90
29551;DHT22;16488;52.396;10.696;2023-01-16T06:56:14;4.40;99.90
29551;DHT22;16488;52.396;10.696;2023-01-16T06:58:40;4.40;99.90
29551;DHT22;16488;52.396;10.696;2023-01-16T07:01:05;4.30;99.90
29551;DHT22;16488;52.396;10.696;2023-01-16T07:03:32;4.20;99.90
29551;DHT22;16488;52.396;10.696;2023-01-16T07:05:58;4.00;99.90
29551;DHT22;16488;52.396;10.696;2023-01-16T07:08:23;3.90;99.90
29551;DHT22;16488;52.396;10.696;2023-01-16T07:10:49;3.80;99.90
29551;DHT22;16488;52.396;10.696;2023-01-16T07:13:15;3.70;99.90
29551;DHT22;16488;52.396;10.696;2023-01-16T07:15:43;3.70;99.90
29551;DHT22;16488;52.396;10.696;2023-01-16T07:18:30;3.70;99.90
29551;DHT22;16488;52.396;10.696;2023-01-16T07:21:15;3.70;99.90
29551;DHT22;16488;52.396;10.696;2023-01-16T07:24:05;3.70;99.90
29551;DHT22;16488;52.396;10.696;2023-01-16T07:26:33;3.70;99.90
29551;DHT22;16488;52.396;10.696;2023-01-16T07:29:00;3.70;99.90
29551;DHT22;16488;52.396;10.696;2023-01-16T07:31:27;3.70;99.90
29551;DHT22;16488;52.396;10.696;2023-01-16T07:33:53;3.80;99.90
29551;DHT22;16488;52.396;10.696;2023-01-16T07:36:19;3.80;99.90
29551;DHT22;16488;52.396;10.696;2023-01-16T07:38:45;3.80;99.90
29551;DHT22;16488;52.396;10.696;2023-01-16T07:41:11;3.80;99.90
29551;DHT22;16488;52.396;10.696;2023-01-16T07:43:36;3.80;99.90
29551;DHT22;16488;52.396;10.696;2023-01-16T07:46:02;3.80;99.90
29551;DHT22;16488;52.396;10.696;2023-01-16T07:48:27;3.80;99.90
29551;DHT22;16488;52.396;10.696;2023-01-16T07:50:56;3.80;99.90
29551;DHT22;16488;52.396;10.696;2023-01-16T07:53:24;3.80;99.90
29551;DHT22;16488;52.396;10.696;2023-01-16T07:55:51;3.80;99.90
29551;DHT22;16488;52.396;10.696;2023-01-16T07:58:18;3.70;99.90
29551;DHT22;16488;52.396;10.696;2023-01-16T08:00:43;3.80;99.90
29551;DHT22;16488;52.396;10.696;2023-01-16T08:03:09;3.80;99.90
29551;DHT22;16488;52.396;10.696;2023-01-16T08:05:35;3.70;99.90
29551;DHT22;16488;52.396;10.696;2023-01-16T08:08:02;3.80;99.90
29551;DHT22;16488;52.396;10.696;2023-01-16T08:10:28;3.80;99.90
29551;DHT22;16488;52.396;10.696;2023-01-16T08:12:53;3.80;99.90
29551;DHT22;16488;52.396;10.696;2023-01-16T08:15:19;3.80;99.90
29551;DHT22;16488;52.396;10.696;2023-01-16T08:17:45;3.80;99.90
29551;DHT22;16488;52.396;10.696;2023-01-16T08:20:11;3.80;99.90
29551;DHT22;16488;52.396;10.696;2023-01-16T08:22:44;3.80;99.90
29551;DHT22;16488;52.396;10.696;2023-01-16T08:25:10;3.80;99.90
29551;DHT22;16488;52.396;10.696;2023-01-16T08:27:36;3.90;99.90
29551;DHT22;16488;52.396;10.696;2023-01-16T08:30:03;3.90;99.90
29551;DHT22;16488;52.396;10.696;2023-01-16T08:32:29;4.00;99.90
29551;DHT22;16488;52.396;10.696;2023-01-16T08:34:54;4.00;99.90
29551;DHT22;16488;52.396;10.696;2023-01-16T08:37:20;4.10;99.90
29551;DHT22;16488;52.396;10.696;2023-01-16T08:39:45;4.20;99.90
29551;DHT22;16488;52.396;10.696;2023-01-16T08:42:11;4.30;99.90
29551;DHT22;16488;52.396;10.696;2023-01-16T08:44:55;4.30;99.90
29551;DHT22;16488;52.396;10.696;2023-01-16T08:47:39;4.40;99.90
29551;DHT22;16488;52.396;10.696;2023-01-16T08:50:23;4.40;99.90
29551;DHT22;16488;52.396;10.696;2023-01-16T08:53:07;4.60;99.90
29551;DHT22;16488;52.396;10.696;2023-01-16T08:55:33;4.60;99.90
29551;DHT22;16488;52.396;10.696;2023-01-16T08:57:58;4.70;99.90
29551;DHT22;16488;52.396;10.696;2023-01-16T09:00:27;4.70;99.90
29551;DHT22;16488;52.396;10.696;2023-01-16T09:02:54;4.80;99.90
29551;DHT22;16488;52.396;10.696;2023-01-16T09:05:21;4.90;99.90
29551;DHT22;16488;52.396;10.696;2023-01-16T09:07:47;4.90;99.90
29551;DHT22;16488;52.396;10.696;2023-01-16T09:10:13;5.00;99.90
29551;DHT22;16488;52.396;10.696;2023-01-16T09:12:39;5.20;99.90
29551;DHT22;16488;52.396;10.696;2023-01-16T09:15:24;5.20;99.90
29551;DHT22;16488;52.396;10.696;2023-01-16T09:17:50;5.30;99.90
29551;DHT22;16488;52.396;10.696;2023-01-16T09:20:16;5.30;99.90
29551;DHT22;16488;52.396;10.696;2023-01-16T09:22:41;5.40;99.90
29551;DHT22;16488;52.396;10.696;2023-01-16T09:25:07;5.50;99.90
29551;DHT22;16488;52.396;10.696;2023-01-16T09:27:33;5.60;99.90
29551;DHT22;16488;52.396;10.696;2023-01-16T09:29:59;5.60;99.90
29551;DHT22;16488;52.396;10.696;2023-01-16T09:32:25;5.70;99.90
29551;DHT22;16488;52.396;10.696;2023-01-16T09:34:51;5.70;99.90
29551;DHT22;16488;52.396;10.696;2023-01-16T09:37:17;5.80;99.90
29551;DHT22;16488;52.396;10.696;2023-01-16T09:39:42;5.80;99.90
29551;DHT22;16488;52.396;10.696;2023-01-16T09:45:14;5.90;99.90
29551;DHT22;16488;52.396;10.696;2023-01-16T09:47:43;6.00;99.90
29551;DHT22;16488;52.396;10.696;2023-01-16T09:50:30;6.00;99.90
29551;DHT22;16488;52.396;10.696;2023-01-16T09:52:58;6.10;99.90
29551;DHT22;16488;52.396;10.696;2023-01-16T09:55:48;6.20;99.90
29551;DHT22;16488;52.396;10.696;2023-01-16T09:58:37;6.10;99.90
29551;DHT22;16488;52.396;10.696;2023-01-16T10:01:14;6.00;99.90
29551;DHT22;16488;52.396;10.696;2023-01-16T10:03:41;5.90;99.90
29551;DHT22;16488;52.396;10.696;2023-01-16T10:08:47;5.80;99.90
29551;DHT22;16488;52.396;10.696;2023-01-16T10:11:23;5.70;99.90
29551;DHT22;16488;52.396;10.696;2023-01-16T10:13:57;5.70;99.90
29551;DHT22;16488;52.396;10.696;2023-01-16T10:21:56;5.60;99.90
29551;DHT22;16488;52.396;10.696;2023-01-16T10:24:41;5.60;99.90
29551;DHT22;16488;52.396;10.696;2023-01-16T10:35:31;5.70;99.90
29551;DHT22;16488;52.396;10.696;2023-01-16T10:38:11;5.90;99.90
29551;DHT22;16488;52.396;10.696;2023-01-16T10:40:39;6.30;99.90
29551;DHT22;16488;52.396;10.696;2023-01-16T10:43:14;6.70;99.90
29551;DHT22;16488;52.396;10.696;2023-01-16T10:46:11;7.00;99.90
29551;DHT22;16488;52.396;10.696;2023-01-16T10:48:56;7.00;99.90
29551;DHT22;16488;52.396;10.696;2023-01-16T10:51:41;7.00;99.90
29551;DHT22;16488;52.396;10.696;2023-01-16T10:54:06;6.80;99.90
29551;DHT22;16488;52.396;10.696;2023-01-16T10:56:32;6.90;99.90
29551;DHT22;16488;52.396;10.696;2023-01-16T10:58:59;6.80;99.90
29551;DHT22;16488;52.396;10.696;2023-01-16T11:01:25;6.70;99.90
29551;DHT22;16488;52.396;10.696;2023-01-16T11:03:59;6.40;99.90
29551;DHT22;16488;52.396;10.696;2023-01-16T11:06:27;6.20;99.90
29551;DHT22;16488;52.396;10.696;2023-01-16T11:11:21;6.30;99.90
29551;DHT22;16488;52.396;10.696;2023-01-16T11:14:25;6.40;99.90
29551;DHT22;16488;52.396;10.696;2023-01-16T11:17:29;6.40;99.90
29551;DHT22;16488;52.396;10.696;2023-01-16T11:20:27;6.30;99.90
29551;DHT22;16488;52.396;10.696;2023-01-16T11:22:59;6.20;99.90
29551;DHT22;16488;52.396;10.696;2023-01-16T11:25:28;6.10;99.90
29551;DHT22;16488;52.396;10.696;2023-01-16T11:27:56;6.10;99.90
29551;DHT22;16488;52.396;10.696;2023-01-16T11:30:40;6.20;99.90
29551;DHT22;16488;52.396;10.696;2023-01-16T11:33:20;6.20;99.90
29551;DHT22;16488;52.396;10.696;2023-01-16T11:35:52;6.10;99.90
29551;DHT22;16488;52.396;10.696;2023-01-16T11:38:19;6.10;99.90
29551;DHT22;16488;52.396;10.696;2023-01-16T11:40:46;6.10;99.90
29551;DHT22;16488;52.396;10.696;2023-01-16T11:43:15;6.10;99.90
29551;DHT22;16488;52.396;10.696;2023-01-16T11:46:01;6.00;99.90
29551;DHT22;16488;52.396;10.696;2023-01-16T11:48:41;5.90;99.90
29551;DHT22;16488;52.396;10.696;2023-01-16T11:51:18;5.90;99.90
29551;DHT22;16488;52.396;10.696;2023-01-16T11:53:46;5.90;99.90
29551;DHT22;16488;52.396;10.696;2023-01-16T12:05:19;5.90;99.90
29551;DHT22;16488;52.396;10.696;2023-01-16T12:08:16;5.90;99.90
29551;DHT22;16488;52.396;10.696;2023-01-16T12:11:06;5.90;99.90
29551;DHT22;16488;52.396;10.696;2023-01-16T12:13:49;6.00;99.90
29551;DHT22;16488;52.396;10.696;2023-01-16T12:27:01;6.00;99.90
29551;DHT22;16488;52.396;10.696;2023-01-16T12:32:13;6.10;99.90
29551;DHT22;16488;52.396;10.696;2023-01-16T12:34:57;6.10;99.90
29551;DHT22;16488;52.396;10.696;2023-01-16T12:43:34;6.30;99.90
29551;DHT22;16488;52.396;10.696;2023-01-16T12:46:14;6.40;99.90
29551;DHT22;16488;52.396;10.696;2023-01-16T12:51:40;6.40;99.90
29551;DHT22;16488;52.396;10.696;2023-01-16T12:59:38;6.20;99.90
29551;DHT22;16488;52.396;10.696;2023-01-16T13:02:27;6.20;99.90
29551;DHT22;16488;52.396;10.696;2023-01-16T13:05:05;6.20;99.90
29551;DHT22;16488;52.396;10.696;2023-01-16T13:07:36;6.10;99.90
29551;DHT22;16488;52.396;10.696;2023-01-16T13:12:55;6.10;99.90
29551;DHT22;16488;52.396;10.696;2023-01-16T13:15:41;6.10;99.90
29551;DHT22;16488;52.396;10.696;2023-01-16T13:20:45;6.00;99.90
29551;DHT22;16488;52.396;10.696;2023-01-16T13:23:43;6.00;99.90
29551;DHT22;16488;52.396;10.696;2023-01-16T13:26:15;6.00;99.90
29551;DHT22;16488;52.396;10.696;2023-01-16T13:31:47;5.90;99.90
29551;DHT22;16488;52.396;10.696;2023-01-16T13:34:26;5.90;99.90
29551;DHT22;16488;52.396;10.696;2023-01-16T13:39:46;6.00;99.90
29551;DHT22;16488;52.396;10.696;2023-01-16T13:42:16;6.10;99.90
29551;DHT22;16488;52.396;10.696;2023-01-16T13:44:48;6.10;99.90
29551;DHT22;16488;52.396;10.696;2023-01-16T13:47:39;6.10;99.90
29551;DHT22;16488;52.396;10.696;2023-01-16T13:52:41;6.40;99.90
29551;DHT22;16488;52.396;10.696;2023-01-16T13:55:36;6.40;99.90
29551;DHT22;16488;52.396;10.696;2023-01-16T13:58:22;6.50;99.90
29551;DHT22;16488;52.396;10.696;2023-01-16T14:00:59;6.60;99.90
29551;DHT22;16488;52.396;10.696;2023-01-16T14:03:35;6.90;99.90
29551;DHT22;16488;52.396;10.696;2023-01-16T14:09:07;7.20;99.90
29551;DHT22;16488;52.396;10.696;2023-01-16T14:12:00;7.30;99.90
29551;DHT22;16488;52.396;10.696;2023-01-16T14:14:34;7.20;99.90
29551;DHT22;16488;52.396;10.696;2023-01-16T14:17:21;7.00;99.90
29551;DHT22;16488;52.396;10.696;2023-01-16T14:22:22;7.00;99.90
29551;DHT22;16488;52.396;10.696;2023-01-16T14:24:53;7.00;99.90
29551;DHT22;16488;52.396;10.696;2023-01-16T14:27:30;6.90;99.90
29551;DHT22;16488;52.396;10.696;2023-01-16T14:29:59;7.00;99.90
29551;DHT22;16488;52.396;10.696;2023-01-16T14:32:28;7.00;99.90
29551;DHT22;16488;52.396;10.696;2023-01-16T14:35:03;7.00;99.90
29551;DHT22;16488;52.396;10.696;2023-01-16T14:37:36;7.00;99.90
29551;DHT22;16488;52.396;10.696;2023-01-16T14:42:46;7.00;99.90
29551;DHT22;16488;52.396;10.696;2023-01-16T14:45:36;6.90;99.90
29551;DHT22;16488;52.396;10.696;2023-01-16T14:56:57;6.60;99.90
29551;DHT22;16488;52.396;10.696;2023-01-16T14:59:33;6.60;99.90
29551;DHT22;16488;52.396;10.696;2023-01-16T15:02:09;6.60;99.90
29551;DHT22;16488;52.396;10.696;2023-01-16T15:07:42;6.50;99.90
29551;DHT22;16488;52.396;10.696;2023-01-16T15:10:38;6.50;99.90
29551;DHT22;16488;52.396;10.696;2023-01-16T15:13:23;6.50;99.90
29551;DHT22;16488;52.396;10.696;2023-01-16T15:16:03;6.40;99.90
29551;DHT22;16488;52.396;10.696;2023-01-16T15:18:30;6.40;99.90
29551;DHT22;16488;52.396;10.696;2023-01-16T15:21:20;6.40;99.90
29551;DHT22;16488;52.396;10.696;2023-01-16T15:24:05;6.30;99.90
29551;DHT22;16488;52.396;10.696;2023-01-16T15:27:11;6.30;99.90
29551;DHT22;16488;52.396;10.696;2023-01-16T15:32:12;6.20;99.90
29551;DHT22;16488;52.396;10.696;2023-01-16T15:34:43;6.20;99.90
29551;DHT22;16488;52.396;10.696;2023-01-16T15:37:24;6.10;99.90
29551;DHT22;16488;52.396;10.696;2023-01-16T15:39:52;6.10;99.90
29551;DHT22;16488;52.396;10.696;2023-01-16T15:42:24;6.10;99.90
29551;DHT22;16488;52.396;10.696;2023-01-16T15:45:21;6.00;99.90
29551;DHT22;16488;52.396;10.696;2023-01-16T15:48:24;6.10;99.90
29551;DHT22;16488;52.396;10.696;2023-01-16T15:51:00;6.00;99.90
29551;DHT22;16488;52.396;10.696;2023-01-16T15:53:39;6.00;99.90
29551;DHT22;16488;52.396;10.696;2023-01-16T15:56:25;6.00;99.90
29551;DHT22;16488;52.396;10.696;2023-01-16T15:58:53;5.90;99.90
29551;DHT22;16488;52.396;10.696;2023-01-16T16:01:45;5.90;99.90
29551;DHT22;16488;52.396;10.696;2023-01-16T16:04:11;5.90;99.90
29551;DHT22;16488;52.396;10.696;2023-01-16T16:06:38;6.00;99.90
29551;DHT22;16488;52.396;10.696;2023-01-16T16:09:09;6.00;99.90
29551;DHT22;16488;52.396;10.696;2023-01-16T16:11:39;5.90;99.90
29551;DHT22;16488;52.396;10.696;2023-01-16T16:17:36;5.90;99.90
29551;DHT22;16488;52.396;10.696;2023-01-16T16:23:11;5.90;99.90
29551;DHT22;16488;52.396;10.696;2023-01-16T16:25:56;5.80;99.90
29551;DHT22;16488;52.396;10.696;2023-01-16T16:31:05;5.80;99.90
29551;DHT22;16488;52.396;10.696;2023-01-16T16:33:34;5.80;99.90
29551;DHT22;16488;52.396;10.696;2023-01-16T16:36:00;5.80;99.90
29551;DHT22;16488;52.396;10.696;2023-01-16T16:43:49;5.70;99.90
29551;DHT22;16488;52.396;10.696;2023-01-16T16:48:48;5.70;99.90
29551;DHT22;16488;52.396;10.696;2023-01-16T16:51:21;5.70;99.90
29551;DHT22;16488;52.396;10.696;2023-01-16T16:54:14;5.70;99.90
29551;DHT22;16488;52.396;10.696;2023-01-16T16:56:49;5.70;99.90
29551;DHT22;16488;52.396;10.696;2023-01-16T16:59:21;5.70;99.90
29551;DHT22;16488;52.396;10.696;2023-01-16T17:01:54;5.70;99.90
29551;DHT22;16488;52.396;10.696;2023-01-16T17:04:21;5.70;99.90
29551;DHT22;16488;52.396;10.696;2023-01-16T17:06:47;5.70;99.90
29551;DHT22;16488;52.396;10.696;2023-01-16T17:09:16;5.70;99.90
29551;DHT22;16488;52.396;10.696;2023-01-16T17:11:43;5.70;99.90
29551;DHT22;16488;52.396;10.696;2023-01-16T17:14:09;5.60;99.90
29551;DHT22;16488;52.396;10.696;2023-01-16T17:16:36;5.70;99.90
29551;DHT22;16488;52.396;10.696;2023-01-16T17:19:15;5.70;99.90
29551;DHT22;16488;52.396;10.696;2023-01-16T17:21:42;5.60;99.90
29551;DHT22;16488;52.396;10.696;2023-01-16T17:24:18;5.70;99.90
29551;DHT22;16488;52.396;10.696;2023-01-16T17:26:45;5.70;99.90
29551;DHT22;16488;52.396;10.696;2023-01-16T17:29:11;5.70;99.90
29551;DHT22;16488;52.396;10.696;2023-01-16T17:31:39;5.70;99.90
29551;DHT22;16488;52.396;10.696;2023-01-16T17:34:05;5.70;99.90
29551;DHT22;16488;52.396;10.696;2023-01-16T17:36:31;5.70;99.90
29551;DHT22;16488;52.396;10.696;2023-01-16T17:38:58;5.60;99.90
29551;DHT22;16488;52.396;10.696;2023-01-16T17:41:25;5.60;99.90
29551;DHT22;16488;52.396;10.696;2023-01-16T17:43:51;5.60;99.90
29551;DHT22;16488;52.396;10.696;2023-01-16T17:46:35;5.60;99.90
29551;DHT22;16488;52.396;10.696;2023-01-16T17:49:01;5.60;99.90
29551;DHT22;16488;52.396;10.696;2023-01-16T17:51:27;5.60;99.90
29551;DHT22;16488;52.396;10.696;2023-01-16T17:53:53;5.60;99.90
29551;DHT22;16488;52.396;10.696;2023-01-16T17:56:20;5.60;99.90
29551;DHT22;16488;52.396;10.696;2023-01-16T17:58:47;5.60;99.90
29551;DHT22;16488;52.396;10.696;2023-01-16T18:01:27;5.60;99.90
29551;DHT22;16488;52.396;10.696;2023-01-16T18:03:59;5.70;99.90
29551;DHT22;16488;52.396;10.696;2023-01-16T18:06:36;5.70;99.90
29551;DHT22;16488;52.396;10.696;2023-01-16T18:09:03;5.60;99.90
29551;DHT22;16488;52.396;10.696;2023-01-16T18:11:36;5.60;99.90
29551;DHT22;16488;52.396;10.696;2023-01-16T18:14:20;5.60;99.90
29551;DHT22;16488;52.396;10.696;2023-01-16T18:17:04;5.60;99.90
29551;DHT22;16488;52.396;10.696;2023-01-16T18:19:54;5.60;99.90
29551;DHT22;16488;52.396;10.696;2023-01-16T18:22:27;5.60;99.90
29551;DHT22;16488;52.396;10.696;2023-01-16T18:24:53;5.60;99.90
29551;DHT22;16488;52.396;10.696;2023-01-16T18:27:19;5.60;99.90
29551;DHT22;16488;52.396;10.696;2023-01-16T18:29:45;5.60;99.90
29551;DHT22;16488;52.396;10.696;2023-01-16T18:32:12;5.60;99.90